KPDX/PDX METAR and TAF weather

Enter ICAO airport designator
Station Type Date Time Source
KPDX METAR 2019/04/18 09:53 UTC NOAA

KPDX 180953Z 09003KT 10SM FEW080 BKN250 10/08 A3029 RMK AO2 SLP257 T01000078


Station Type Date Time Source
KPDX Decoded METAR 2019/04/18 09:53 UTC NOAA

PORTLAND INTERNATIONAL AIRPORT, OR, United States (KPDX) 45-35N 122-36W 7M
Apr 18, 2019 - 05:53 AM EDT / 2019.04.18 0953 UTC
Wind: from the E (090 degrees) at 3 MPH (3 KT):0
Visibility: 10 mile(s):0
Sky conditions: mostly cloudy
Temperature: 50.0 F (10.0 C)
Dew Point: 46.0 F (7.8 C)
Relative Humidity: 86%
Pressure (altimeter): 30.29 in. Hg (1025 hPa)
ob: KPDX 180953Z 09003KT 10SM FEW080 BKN250 10/08 A3029 RMK AO2 SLP257 T01000078
cycle: 10

Station Type Date Time Source
KPDX TAF 2019/04/18 09:27 UTC NOAA

TAF
AMD KPDX 180924Z 1809/1906 VRB03KT P6SM SCT120
FM181800 24006KT P6SM SCT120
FM190300 27007KT P6SM SCT070 BKN100

Example: see airport list